createdAt,value
2022-11-29T00:01:56.148Z,69.08
2022-11-29T00:04:22.875Z,66.62
2022-11-29T00:06:49.490Z,67.18
2022-11-29T00:09:16.176Z,67.68
2022-11-29T00:11:42.824Z,68.19
2022-11-29T00:14:11.855Z,68.00
2022-11-29T00:16:38.520Z,68.34
2022-11-29T00:19:05.147Z,68.48
2022-11-29T00:21:31.772Z,68.40
2022-11-29T00:23:58.410Z,69.34
2022-11-29T00:26:25.066Z,68.33
2022-11-29T00:28:51.689Z,68.75
2022-11-29T00:31:29.055Z,68.37
2022-11-29T00:33:56.431Z,67.65
2022-11-29T00:36:23.229Z,67.90
2022-11-29T00:38:49.874Z,67.76
2022-11-29T00:41:16.518Z,68.97
2022-11-29T00:43:43.159Z,68.19
2022-11-29T00:46:09.821Z,68.22
2022-11-29T00:48:36.560Z,67.88
2022-11-29T00:51:03.841Z,68.10
2022-11-29T00:53:30.470Z,69.91
2022-11-29T00:55:57.512Z,69.76
2022-11-29T00:58:24.276Z,69.26
2022-11-29T01:00:51.326Z,69.89
2022-11-29T01:03:17.960Z,68.76
2022-11-29T01:05:44.836Z,69.50
2022-11-29T01:08:12.086Z,69.12
2022-11-29T01:10:38.693Z,69.50
2022-11-29T01:13:05.387Z,69.26
2022-11-29T01:15:32.074Z,70.01
2022-11-29T01:17:58.700Z,70.23
2022-11-29T01:20:25.317Z,68.96
2022-11-29T01:22:52.050Z,69.20
2022-11-29T01:25:18.669Z,69.48
2022-11-29T01:27:45.347Z,70.21
2022-11-29T01:30:12.039Z,68.73
2022-11-29T01:32:38.655Z,67.78
2022-11-29T01:35:05.849Z,67.96
2022-11-29T01:37:32.478Z,66.82
2022-11-29T01:39:59.164Z,67.11
2022-11-29T01:42:25.817Z,68.25
2022-11-29T01:45:13.490Z,68.21
2022-11-29T01:47:41.374Z,67.35
2022-11-29T01:50:08.215Z,68.48
2022-11-29T01:52:34.882Z,68.04
2022-11-29T01:55:02.645Z,67.76
2022-11-29T01:57:29.476Z,68.43
2022-11-29T01:59:58.673Z,68.60
2022-11-29T02:02:32.188Z,68.28
2022-11-29T02:04:59.501Z,68.12
2022-11-29T02:07:26.165Z,69.31
2022-11-29T02:09:52.865Z,69.68
2022-11-29T02:12:25.246Z,69.79
2022-11-29T02:15:07.006Z,70.56
2022-11-29T02:17:43.595Z,69.65
2022-11-29T02:20:34.746Z,70.41
2022-11-29T02:23:20.213Z,70.32
2022-11-29T02:26:01.844Z,70.30
2022-11-29T02:28:33.922Z,70.11
2022-11-29T02:31:13.401Z,70.01
2022-11-29T02:33:46.173Z,70.19
2022-11-29T02:36:25.017Z,71.20
2022-11-29T02:39:03.455Z,71.55
2022-11-29T02:41:29.957Z,71.38
2022-11-29T02:44:41.599Z,71.46
2022-11-29T02:47:15.973Z,71.26
2022-11-29T02:50:05.341Z,71.04
2022-11-29T02:52:45.339Z,71.68
2022-11-29T02:55:23.186Z,70.70
2022-11-29T02:58:03.635Z,71.23
2022-11-29T03:00:30.275Z,71.74
2022-11-29T03:03:26.391Z,70.66
2022-11-29T03:06:13.140Z,71.35
2022-11-29T03:09:01.473Z,70.36
2022-11-29T03:12:12.592Z,70.65
2022-11-29T03:15:02.665Z,70.79
2022-11-29T03:17:57.549Z,71.12
2022-11-29T03:20:56.966Z,71.27
2022-11-29T03:23:59.190Z,70.57
2022-11-29T03:26:40.860Z,70.01
2022-11-29T03:29:11.896Z,69.81
2022-11-29T03:31:44.269Z,69.69
2022-11-29T03:34:29.409Z,69.83
2022-11-29T03:37:21.895Z,69.62
2022-11-29T03:40:00.152Z,69.68
2022-11-29T03:42:28.905Z,69.88
2022-11-29T03:45:05.009Z,69.95
2022-11-29T03:47:36.314Z,70.37
2022-11-29T03:50:09.507Z,70.34
2022-11-29T03:52:47.326Z,70.41
2022-11-29T03:55:32.014Z,70.48
2022-11-29T03:58:52.797Z,70.77
2022-11-29T04:01:21.820Z,71.13
2022-11-29T04:04:25.860Z,70.70
2022-11-29T04:07:10.992Z,71.64
2022-11-29T04:09:59.160Z,70.95
2022-11-29T04:12:47.494Z,71.08
2022-11-29T04:15:42.320Z,71.75
2022-11-29T04:18:24.041Z,71.48
2022-11-29T04:20:53.451Z,70.78
2022-11-29T04:23:36.894Z,71.22
2022-11-29T04:26:09.290Z,71.43
2022-11-29T04:28:47.874Z,71.06
2022-11-29T04:31:46.707Z,71.12
2022-11-29T04:34:35.576Z,70.70
2022-11-29T04:37:08.367Z,70.87
2022-11-29T04:40:08.477Z,70.98
2022-11-29T04:43:13.305Z,71.00
2022-11-29T04:46:05.462Z,70.84
2022-11-29T04:48:57.469Z,70.07
2022-11-29T04:51:58.285Z,70.76
2022-11-29T04:54:45.628Z,70.14
2022-11-29T04:57:40.429Z,70.50
2022-11-29T05:00:12.109Z,70.31
2022-11-29T05:02:57.871Z,70.83
2022-11-29T05:05:29.863Z,70.73
2022-11-29T05:08:21.207Z,69.97
2022-11-29T05:10:56.682Z,70.32
2022-11-29T05:13:44.950Z,70.50
2022-11-29T05:16:30.174Z,69.73
2022-11-29T05:19:17.194Z,70.55
2022-11-29T05:22:02.422Z,71.13
2022-11-29T05:24:47.701Z,70.44
2022-11-29T05:27:22.436Z,71.27
2022-11-29T05:30:10.709Z,70.94
2022-11-29T05:32:46.297Z,70.79
2022-11-29T05:35:50.487Z,71.63
2022-11-29T05:38:39.049Z,71.34
2022-11-29T05:41:08.498Z,70.44
2022-11-29T05:43:44.966Z,69.96
2022-11-29T05:46:29.316Z,70.59
2022-11-29T05:49:18.918Z,70.69
2022-11-29T05:51:51.393Z,70.79
2022-11-29T05:54:26.593Z,70.40
2022-11-29T05:56:59.072Z,70.70
2022-11-29T05:59:28.062Z,69.70
2022-11-29T06:02:10.433Z,70.05
2022-11-29T06:04:55.673Z,69.52
2022-11-29T06:08:11.780Z,69.92
2022-11-29T06:10:39.845Z,69.63
2022-11-29T06:13:35.656Z,70.28
2022-11-29T06:16:08.046Z,70.26
2022-11-29T06:18:47.768Z,69.02
2022-11-29T06:21:43.767Z,68.94
2022-11-29T06:24:26.247Z,69.56
2022-11-29T06:27:13.676Z,68.77
2022-11-29T06:29:58.839Z,69.28
2022-11-29T06:32:42.502Z,69.42
2022-11-29T06:35:18.122Z,68.74
2022-11-29T06:37:52.259Z,69.57
2022-11-29T06:40:18.898Z,69.34
2022-11-29T06:42:45.510Z,69.18
2022-11-29T06:45:13.369Z,68.68
2022-11-29T06:47:45.870Z,68.42
2022-11-29T06:50:37.296Z,67.83
2022-11-29T06:53:11.686Z,69.01
2022-11-29T06:55:56.768Z,68.38
2022-11-29T06:58:45.278Z,68.42
2022-11-29T07:01:33.792Z,68.79
2022-11-29T07:04:12.022Z,68.33
2022-11-29T07:06:38.778Z,68.43
2022-11-29T07:09:17.186Z,68.28
2022-11-29T07:11:44.205Z,67.31
2022-11-29T07:14:10.990Z,68.28
2022-11-29T07:16:55.848Z,68.82
2022-11-29T07:19:33.641Z,68.33
2022-11-29T07:22:18.667Z,68.21
2022-11-29T07:25:02.044Z,68.62
2022-11-29T07:27:40.975Z,69.25
2022-11-29T07:30:41.360Z,69.14
2022-11-29T07:33:29.557Z,69.14
2022-11-29T07:36:18.645Z,69.66
2022-11-29T07:38:55.614Z,69.88
2022-11-29T07:41:38.394Z,69.21
2022-11-29T07:44:23.241Z,69.64
2022-11-29T07:46:49.954Z,69.71
2022-11-29T07:49:16.664Z,70.47
2022-11-29T07:51:44.345Z,70.54
2022-11-29T07:54:12.109Z,70.93
2022-11-29T07:56:38.748Z,70.22
2022-11-29T07:59:05.459Z,70.28
2022-11-29T08:01:32.115Z,71.01
2022-11-29T08:03:58.951Z,70.66
2022-11-29T08:06:25.812Z,69.86
2022-11-29T08:08:52.451Z,70.05
2022-11-29T08:11:19.070Z,69.84
2022-11-29T08:13:45.696Z,69.71
2022-11-29T08:16:16.316Z,69.51
2022-11-29T08:18:42.964Z,70.05
2022-11-29T08:21:09.607Z,68.99
2022-11-29T08:23:36.343Z,69.69
2022-11-29T08:26:03.002Z,68.93
2022-11-29T08:28:29.647Z,69.95
2022-11-29T08:31:06.410Z,69.00
2022-11-29T08:33:35.506Z,69.59
2022-11-29T08:36:06.608Z,68.65
2022-11-29T08:38:33.286Z,69.27
2022-11-29T08:41:06.908Z,68.38
2022-11-29T08:43:33.557Z,68.52
2022-11-29T08:46:00.250Z,67.43
2022-11-29T08:48:26.890Z,67.72
2022-11-29T08:50:53.981Z,67.76
2022-11-29T08:53:20.627Z,67.84
2022-11-29T08:55:47.253Z,67.58
2022-11-29T08:58:14.649Z,67.42
2022-11-29T09:00:42.600Z,67.72
2022-11-29T09:03:09.332Z,67.52
2022-11-29T09:05:36.551Z,67.32
2022-11-29T09:08:03.177Z,68.00
2022-11-29T09:10:29.809Z,67.81
2022-11-29T09:12:56.502Z,67.69
2022-11-29T09:15:23.142Z,67.26
2022-11-29T09:17:49.783Z,68.06
2022-11-29T09:20:16.476Z,67.33
2022-11-29T09:22:43.113Z,67.82
2022-11-29T09:25:09.743Z,66.95
2022-11-29T09:27:36.350Z,66.70
2022-11-29T09:30:02.994Z,66.66
2022-11-29T09:32:29.594Z,66.67
2022-11-29T09:34:56.225Z,65.83
2022-11-29T09:37:22.908Z,66.32
2022-11-29T09:39:49.539Z,68.20
2022-11-29T09:42:27.840Z,66.81
2022-11-29T09:45:11.810Z,66.03
2022-11-29T09:48:04.940Z,66.31
2022-11-29T09:50:38.356Z,65.61
2022-11-29T09:53:26.119Z,64.79
2022-11-29T09:56:29.732Z,65.72
2022-11-29T09:59:01.555Z,65.30
2022-11-29T10:01:39.164Z,65.24
2022-11-29T10:04:14.614Z,64.71
2022-11-29T10:06:57.127Z,64.96
2022-11-29T10:09:33.791Z,65.22
2022-11-29T10:12:30.682Z,65.48
2022-11-29T10:15:15.626Z,65.52
2022-11-29T10:17:47.578Z,64.92
2022-11-29T10:20:19.125Z,65.13
2022-11-29T10:22:47.018Z,64.56
2022-11-29T10:25:29.615Z,64.51
2022-11-29T10:27:56.242Z,64.80
2022-11-29T10:30:22.881Z,64.59
2022-11-29T10:32:55.010Z,65.28
2022-11-29T10:35:21.658Z,64.96
2022-11-29T10:38:07.772Z,64.34
2022-11-29T10:40:35.156Z,65.08
2022-11-29T10:43:01.958Z,65.43
2022-11-29T10:45:33.522Z,65.48
2022-11-29T10:48:16.683Z,65.55
2022-11-29T10:50:44.361Z,65.61
2022-11-29T10:53:17.867Z,65.93
2022-11-29T10:56:13.764Z,65.68
2022-11-29T10:58:54.294Z,65.28
2022-11-29T11:01:20.957Z,64.93
2022-11-29T11:03:54.182Z,65.23
2022-11-29T11:06:24.805Z,65.60
2022-11-29T11:09:11.546Z,64.37
2022-11-29T11:11:38.213Z,64.64
2022-11-29T11:14:05.572Z,64.88
2022-11-29T11:16:37.136Z,64.42
2022-11-29T11:19:31.182Z,64.45
2022-11-29T11:21:59.066Z,63.45
2022-11-29T11:24:28.379Z,63.09
2022-11-29T11:26:55.042Z,62.79
2022-11-29T11:29:24.745Z,63.55
2022-11-29T11:31:54.999Z,63.49
2022-11-29T11:34:30.589Z,63.18
2022-11-29T11:37:15.393Z,62.37
2022-11-29T11:39:42.700Z,62.45
2022-11-29T11:42:14.227Z,62.59
2022-11-29T11:44:58.423Z,62.55
2022-11-29T11:47:29.382Z,63.61
2022-11-29T11:50:02.072Z,63.50
2022-11-29T11:52:52.395Z,62.76
2022-11-29T11:55:18.893Z,64.08
2022-11-29T11:57:45.525Z,63.40
2022-11-29T12:01:02.534Z,63.35
2022-11-29T12:03:35.818Z,63.09
2022-11-29T12:06:22.574Z,63.23
2022-11-29T12:08:49.241Z,63.88
2022-11-29T12:11:17.168Z,63.47
2022-11-29T12:13:49.768Z,62.66
2022-11-29T12:16:22.890Z,62.46
2022-11-29T12:18:50.426Z,63.12
2022-11-29T12:21:21.060Z,62.15
2022-11-29T12:24:21.738Z,62.25
2022-11-29T12:26:56.899Z,62.18
2022-11-29T12:29:24.820Z,62.75
2022-11-29T12:32:13.138Z,62.34
2022-11-29T12:34:58.484Z,62.61
2022-11-29T12:37:27.990Z,62.50
2022-11-29T12:40:12.138Z,61.99
2022-11-29T12:43:07.004Z,61.48
2022-11-29T12:45:41.314Z,61.45
2022-11-29T12:48:10.204Z,61.25
2022-11-29T12:50:55.628Z,61.38
2022-11-29T12:54:07.116Z,60.71
2022-11-29T12:56:57.446Z,60.90
2022-11-29T12:59:38.109Z,60.47
2022-11-29T13:02:27.179Z,60.64
2022-11-29T13:05:00.192Z,60.53
2022-11-29T13:07:26.928Z,60.20
2022-11-29T13:10:18.229Z,61.09
2022-11-29T13:13:17.599Z,61.12
2022-11-29T13:16:02.723Z,61.40
2022-11-29T13:18:34.770Z,61.11
2022-11-29T13:21:11.459Z,60.77
2022-11-29T13:24:08.350Z,60.83
2022-11-29T13:26:35.621Z,61.10
2022-11-29T13:29:02.459Z,60.96
2022-11-29T13:31:29.190Z,60.68
2022-11-29T13:34:13.056Z,60.26
2022-11-29T13:37:01.460Z,61.17
2022-11-29T13:39:46.726Z,59.48
2022-11-29T13:42:16.317Z,58.88
2022-11-29T13:45:06.375Z,59.52
2022-11-29T13:47:32.986Z,59.33
2022-11-29T13:50:03.534Z,59.76
2022-11-29T13:52:42.283Z,58.68
2022-11-29T13:55:11.843Z,60.08
2022-11-29T13:58:16.239Z,59.79
2022-11-29T14:00:43.078Z,60.38
2022-11-29T14:03:18.798Z,61.93
2022-11-29T14:05:46.314Z,63.39
2022-11-29T14:08:54.491Z,64.01
2022-11-29T14:11:24.923Z,63.27
2022-11-29T14:13:52.586Z,64.44
2022-11-29T14:16:28.259Z,65.65
2022-11-29T14:19:06.661Z,65.67
2022-11-29T14:22:01.049Z,65.82
2022-11-29T14:24:33.574Z,66.07
2022-11-29T14:27:06.201Z,65.71
2022-11-29T14:29:47.942Z,64.53
2022-11-29T14:32:34.652Z,64.54
2022-11-29T14:35:10.293Z,64.64
2022-11-29T14:38:01.663Z,62.47
2022-11-29T14:40:36.300Z,63.78
2022-11-29T14:43:02.921Z,63.22
2022-11-29T14:45:31.589Z,64.02
2022-11-29T14:47:58.230Z,63.39
2022-11-29T14:50:37.388Z,63.09
2022-11-29T14:53:06.051Z,62.54
2022-11-29T14:55:36.685Z,63.26
2022-11-29T14:58:05.972Z,62.08
2022-11-29T15:00:32.757Z,61.70
2022-11-29T15:03:13.594Z,61.80
2022-11-29T15:05:42.888Z,61.79
2022-11-29T15:08:26.554Z,61.99
2022-11-29T15:10:59.856Z,61.18
2022-11-29T15:13:31.471Z,61.60
2022-11-29T15:16:24.096Z,62.47
2022-11-29T15:19:15.458Z,62.59
2022-11-29T15:22:09.785Z,62.59
2022-11-29T15:25:00.087Z,63.37
2022-11-29T15:27:26.960Z,63.64
2022-11-29T15:29:53.631Z,63.32
2022-11-29T15:32:29.370Z,61.48
2022-11-29T15:34:55.994Z,64.06
2022-11-29T15:37:38.466Z,62.37
2022-11-29T15:40:23.874Z,61.51
2022-11-29T15:43:13.363Z,62.69
2022-11-29T15:45:40.040Z,60.46
2022-11-29T15:48:22.954Z,56.92
2022-11-29T15:51:15.453Z,59.07
2022-11-29T15:53:45.475Z,57.52
2022-11-29T15:56:47.969Z,59.37
2022-11-29T15:59:41.041Z,58.56
2022-11-29T16:02:21.599Z,59.81
2022-11-29T16:04:49.492Z,59.07
2022-11-29T16:07:16.506Z,58.47
2022-11-29T16:09:44.950Z,58.27
2022-11-29T16:12:16.360Z,57.38
2022-11-29T16:14:52.864Z,57.16
2022-11-29T16:17:20.034Z,57.66
2022-11-29T16:19:46.816Z,56.86
2022-11-29T16:22:23.617Z,56.71
2022-11-29T16:24:59.054Z,58.00
2022-11-29T16:27:25.686Z,57.08
2022-11-29T16:29:52.313Z,57.74
2022-11-29T16:32:29.444Z,58.58
2022-11-29T16:34:57.204Z,58.85
2022-11-29T16:37:25.509Z,60.46
2022-11-29T16:39:55.312Z,60.05
2022-11-29T16:42:25.912Z,60.56
2022-11-29T16:45:01.806Z,60.99
2022-11-29T16:47:47.023Z,61.17
2022-11-29T16:50:17.949Z,62.47
2022-11-29T16:52:44.575Z,61.25
2022-11-29T16:55:11.209Z,62.64
2022-11-29T16:57:38.110Z,60.97
2022-11-29T17:00:31.791Z,61.48
2022-11-29T17:02:58.593Z,62.51
2022-11-29T17:05:25.366Z,62.74
2022-11-29T17:07:52.133Z,62.59
2022-11-29T17:10:21.207Z,63.52
2022-11-29T17:12:48.520Z,63.30
2022-11-29T17:15:15.374Z,64.66
2022-11-29T17:17:42.537Z,64.88
2022-11-29T17:20:11.768Z,65.26
2022-11-29T17:22:38.400Z,64.96
2022-11-29T17:25:05.316Z,65.29
2022-11-29T17:27:31.949Z,65.79
2022-11-29T17:29:58.591Z,65.27
2022-11-29T17:32:26.995Z,65.10
2022-11-29T17:34:53.946Z,65.45
2022-11-29T17:37:20.577Z,64.70
2022-11-29T17:39:47.466Z,65.44
2022-11-29T17:42:14.303Z,64.66
2022-11-29T17:44:41.084Z,65.49
2022-11-29T17:47:07.698Z,65.13
2022-11-29T17:49:34.333Z,65.75
2022-11-29T17:52:00.953Z,65.86
2022-11-29T17:54:27.589Z,65.34
2022-11-29T17:56:54.244Z,65.37
2022-11-29T17:59:20.882Z,65.85
2022-11-29T18:01:47.715Z,65.70
2022-11-29T18:04:14.809Z,66.50
2022-11-29T18:06:41.472Z,66.47
2022-11-29T18:09:08.909Z,65.74
2022-11-29T18:11:45.281Z,65.43
2022-11-29T18:14:14.975Z,66.00
2022-11-29T18:16:41.624Z,66.38
2022-11-29T18:19:10.783Z,65.87
2022-11-29T18:21:37.832Z,65.93
2022-11-29T18:24:05.234Z,66.46
2022-11-29T18:26:32.467Z,66.81
2022-11-29T18:28:59.252Z,67.01
2022-11-29T18:31:30.152Z,66.08
2022-11-29T18:33:58.258Z,67.52
2022-11-29T18:36:29.175Z,66.67
2022-11-29T18:38:57.137Z,66.66
2022-11-29T18:41:24.324Z,67.16
2022-11-29T18:43:57.889Z,66.58
2022-11-29T18:46:24.727Z,66.49
2022-11-29T18:48:51.764Z,66.83
2022-11-29T18:51:19.261Z,66.99
2022-11-29T18:53:45.930Z,67.49
2022-11-29T18:56:17.453Z,66.46
2022-11-29T18:58:45.624Z,67.05
2022-11-29T19:01:15.646Z,67.24
2022-11-29T19:03:44.411Z,66.74
2022-11-29T19:06:15.536Z,67.45
2022-11-29T19:08:42.460Z,66.98
2022-11-29T19:11:13.098Z,67.37
2022-11-29T19:13:39.987Z,68.06
2022-11-29T19:16:07.754Z,68.79
2022-11-29T19:18:34.882Z,68.58
2022-11-29T19:21:10.965Z,68.95
2022-11-29T19:23:37.637Z,68.96
2022-11-29T19:26:08.942Z,68.65
2022-11-29T19:28:36.225Z,68.40
2022-11-29T19:31:03.133Z,68.44
2022-11-29T19:33:29.803Z,69.05
2022-11-29T19:35:56.573Z,68.89
2022-11-29T19:38:23.215Z,68.82
2022-11-29T19:40:49.861Z,68.92
2022-11-29T19:43:16.527Z,69.14
2022-11-29T19:45:43.169Z,69.43
2022-11-29T19:48:09.807Z,69.42
2022-11-29T19:50:36.451Z,69.30
2022-11-29T19:53:03.090Z,69.59
2022-11-29T19:55:29.726Z,69.39
2022-11-29T19:57:56.456Z,69.50
2022-11-29T20:00:23.104Z,69.44
2022-11-29T20:02:49.871Z,69.42
2022-11-29T20:05:16.514Z,69.72
2022-11-29T20:07:43.194Z,69.77
2022-11-29T20:10:10.140Z,69.70
2022-11-29T20:12:36.752Z,69.57
2022-11-29T20:15:03.564Z,69.44
2022-11-29T20:17:30.180Z,69.30
2022-11-29T20:19:56.859Z,69.29
2022-11-29T20:22:23.553Z,69.39
2022-11-29T20:24:50.220Z,69.51
2022-11-29T20:27:16.845Z,69.11
2022-11-29T20:29:43.570Z,69.15
2022-11-29T20:32:10.301Z,68.86
2022-11-29T20:34:37.097Z,68.63
2022-11-29T20:37:09.559Z,68.33
2022-11-29T20:39:54.802Z,67.51
2022-11-29T20:42:41.764Z,67.99
2022-11-29T20:45:08.993Z,67.91
2022-11-29T20:47:50.625Z,67.34
2022-11-29T20:50:26.655Z,66.83
2022-11-29T20:53:15.274Z,67.66
2022-11-29T20:55:47.755Z,67.55
2022-11-29T20:58:15.080Z,68.23
2022-11-29T21:00:41.699Z,68.20
2022-11-29T21:03:08.400Z,67.65
2022-11-29T21:05:37.658Z,67.36
2022-11-29T21:08:04.356Z,67.47
2022-11-29T21:10:31.102Z,67.45
2022-11-29T21:12:57.903Z,67.26
2022-11-29T21:15:24.760Z,67.52
2022-11-29T21:17:51.642Z,67.37
2022-11-29T21:20:21.389Z,67.69
2022-11-29T21:22:56.536Z,67.46
2022-11-29T21:25:45.288Z,67.37
2022-11-29T21:28:12.917Z,67.34
2022-11-29T21:30:39.817Z,67.33
2022-11-29T21:33:06.782Z,67.49
2022-11-29T21:35:33.398Z,67.20
2022-11-29T21:38:00.975Z,67.74
2022-11-29T21:40:27.751Z,67.31
2022-11-29T21:42:54.509Z,67.52
2022-11-29T21:45:21.155Z,67.46
2022-11-29T21:47:47.793Z,67.47
2022-11-29T21:50:14.488Z,67.53
2022-11-29T21:52:41.126Z,67.34
2022-11-29T21:55:08.154Z,67.37
2022-11-29T21:57:35.083Z,67.42
2022-11-29T22:00:02.124Z,67.92
2022-11-29T22:02:29.160Z,67.88
2022-11-29T22:04:55.943Z,67.86
2022-11-29T22:07:22.639Z,68.00
2022-11-29T22:09:49.832Z,67.75
2022-11-29T22:12:33.652Z,67.86
2022-11-29T22:15:01.454Z,67.65
2022-11-29T22:17:28.116Z,68.21
2022-11-29T22:19:54.756Z,68.38
2022-11-29T22:22:21.398Z,68.51
2022-11-29T22:24:48.175Z,68.74
2022-11-29T22:27:15.447Z,68.88
2022-11-29T22:29:42.127Z,68.86
2022-11-29T22:32:08.897Z,69.29
2022-11-29T22:34:35.541Z,69.23
2022-11-29T22:37:02.239Z,69.27
2022-11-29T22:39:29.171Z,68.75
2022-11-29T22:41:55.944Z,68.73
2022-11-29T22:44:25.001Z,68.48
2022-11-29T22:46:51.691Z,68.44
2022-11-29T22:49:18.402Z,68.24
2022-11-29T22:51:45.043Z,68.18
2022-11-29T22:54:11.861Z,67.66
2022-11-29T22:56:40.370Z,67.41
2022-11-29T22:59:07.274Z,67.61
2022-11-29T23:01:35.756Z,67.22
2022-11-29T23:04:04.311Z,67.11
2022-11-29T23:06:32.557Z,67.05
2022-11-29T23:09:03.297Z,66.75
2022-11-29T23:11:30.002Z,66.74
2022-11-29T23:13:56.680Z,66.06
2022-11-29T23:16:25.055Z,66.91
2022-11-29T23:18:51.874Z,66.98
2022-11-29T23:21:19.490Z,66.46
2022-11-29T23:23:47.533Z,66.75
2022-11-29T23:26:18.795Z,66.43
2022-11-29T23:28:46.081Z,66.00
2022-11-29T23:31:12.863Z,66.30
2022-11-29T23:33:39.522Z,66.16
2022-11-29T23:36:07.280Z,66.04
2022-11-29T23:38:34.173Z,66.29
2022-11-29T23:41:00.815Z,66.88
2022-11-29T23:43:34.182Z,67.08
2022-11-29T23:46:05.520Z,67.36
2022-11-29T23:48:32.260Z,67.33
2022-11-29T23:50:58.920Z,66.88
2022-11-29T23:53:25.568Z,67.09
2022-11-29T23:56:02.930Z,67.56
2022-11-29T23:58:29.729Z,67.36
